createdAt,value
2022-09-10T00:00:38.700Z,12.18
2022-09-10T00:03:15.827Z,14.07
2022-09-10T00:05:46.305Z,14.27
2022-09-10T00:08:14.954Z,9.25
2022-09-10T00:10:53.507Z,9.00
2022-09-10T00:13:24.821Z,10.77
2022-09-10T00:15:55.051Z,7.40
2022-09-10T00:18:32.987Z,8.25
2022-09-10T00:21:10.242Z,13.55
2022-09-10T00:23:38.801Z,11.20
2022-09-10T00:26:15.072Z,7.45
2022-09-10T00:28:43.913Z,9.10
2022-09-10T00:31:13.257Z,7.88
2022-09-10T00:33:41.855Z,11.57
2022-09-10T00:36:17.487Z,8.80
2022-09-10T00:38:45.461Z,7.10
2022-09-10T00:41:15.854Z,10.75
2022-09-10T00:43:55.602Z,9.98
2022-09-10T00:46:47.600Z,14.02
2022-09-10T00:49:20.292Z,10.23
2022-09-10T00:51:49.570Z,17.23
2022-09-10T00:54:20.693Z,12.30
2022-09-10T00:56:53.187Z,13.27
2022-09-10T00:59:26.553Z,15.43
2022-09-10T01:01:56.132Z,11.90
2022-09-10T01:04:24.285Z,19.02
2022-09-10T01:06:52.794Z,15.38
2022-09-10T01:12:24.548Z,11.52
2022-09-10T01:15:15.707Z,14.75
2022-09-10T01:18:11.083Z,11.00
2022-09-10T01:21:18.206Z,15.15
2022-09-10T01:24:27.440Z,17.70
2022-09-10T01:27:25.181Z,10.35
2022-09-10T01:30:00.457Z,16.15
2022-09-10T01:32:46.130Z,15.45
2022-09-10T01:35:19.694Z,11.55
2022-09-10T01:37:54.683Z,21.30
2022-09-10T01:40:29.770Z,21.98
2022-09-10T01:43:01.769Z,21.55
2022-09-10T01:45:37.269Z,20.92
2022-09-10T01:48:42.863Z,25.70
2022-09-10T01:51:30.716Z,15.95
2022-09-10T01:54:25.421Z,18.52
2022-09-10T01:57:13.203Z,22.40
2022-09-10T01:59:51.463Z,18.23
2022-09-10T02:02:25.982Z,20.58
2022-09-10T02:04:55.884Z,18.50
2022-09-10T02:07:26.982Z,21.80
2022-09-10T02:09:55.859Z,22.50
2022-09-10T02:12:24.709Z,19.58
2022-09-10T02:14:57.545Z,16.85
2022-09-10T02:17:31.611Z,17.77
2022-09-10T02:20:09.502Z,17.45
2022-09-10T02:22:43.581Z,19.42
2022-09-10T02:25:12.300Z,31.35
2022-09-10T02:27:46.815Z,17.73
2022-09-10T02:30:17.003Z,22.13
2022-09-10T02:32:47.826Z,18.05
2022-09-10T02:35:25.265Z,19.52
2022-09-10T02:37:56.782Z,21.05
2022-09-10T02:40:31.464Z,23.30
2022-09-10T02:42:59.381Z,23.38
2022-09-10T02:45:34.422Z,24.13
2022-09-10T02:48:10.200Z,29.85
2022-09-10T02:50:38.591Z,24.10
2022-09-10T02:53:06.944Z,24.75
2022-09-10T02:55:48.935Z,23.73
2022-09-10T02:58:35.170Z,16.75
2022-09-10T03:01:08.873Z,20.48
2022-09-10T03:03:39.152Z,22.58
2022-09-10T03:06:07.939Z,20.38
2022-09-10T03:08:36.821Z,27.30
2022-09-10T03:11:08.382Z,19.20
2022-09-10T03:13:39.396Z,26.35
2022-09-10T03:16:10.706Z,20.55
2022-09-10T03:18:40.212Z,20.85
2022-09-10T03:21:22.045Z,23.02
2022-09-10T03:23:51.420Z,28.58
2022-09-10T03:26:20.532Z,25.52
2022-09-10T03:29:09.836Z,25.65
2022-09-10T03:31:38.073Z,25.50
2022-09-10T03:34:08.847Z,31.17
2022-09-10T03:36:36.874Z,24.70
2022-09-10T03:39:05.052Z,19.55
2022-09-10T03:41:33.434Z,22.38
2022-09-10T03:44:01.687Z,27.15
2022-09-10T03:46:29.654Z,21.95
2022-09-10T03:48:59.587Z,19.13
2022-09-10T03:51:29.302Z,20.23
2022-09-10T03:54:00.421Z,22.90
2022-09-10T03:56:31.659Z,21.75
2022-09-10T03:58:59.688Z,25.02
2022-09-10T04:01:30.963Z,27.67
2022-09-10T04:04:05.074Z,31.50
2022-09-10T04:06:38.371Z,21.05
2022-09-10T04:09:06.454Z,22.83
2022-09-10T04:11:43.707Z,22.65
2022-09-10T04:14:11.759Z,24.33
2022-09-10T04:16:42.885Z,25.92
2022-09-10T04:19:14.017Z,21.02
2022-09-10T04:21:57.947Z,24.90
2022-09-10T04:24:29.078Z,22.40
2022-09-10T04:26:57.781Z,22.83
2022-09-10T04:29:34.992Z,26.00
2022-09-10T04:32:09.818Z,23.90
2022-09-10T04:34:37.794Z,28.50
2022-09-10T04:37:16.184Z,23.45
2022-09-10T04:39:47.234Z,24.83
2022-09-10T04:42:20.313Z,25.25
2022-09-10T04:44:49.149Z,18.63
2022-09-10T04:47:18.175Z,20.25
2022-09-10T04:49:46.156Z,26.52
2022-09-10T04:52:17.171Z,23.17
2022-09-10T04:54:54.542Z,21.98
2022-09-10T04:57:23.495Z,25.38
2022-09-10T04:59:55.652Z,19.90
2022-09-10T05:02:23.739Z,21.08
2022-09-10T05:05:05.996Z,20.10
2022-09-10T05:07:35.335Z,21.90
2022-09-10T05:10:10.536Z,16.48
2022-09-10T05:12:44.550Z,20.08
2022-09-10T05:15:15.934Z,28.60
2022-09-10T05:17:47.650Z,18.63
2022-09-10T05:20:30.927Z,18.98
2022-09-10T05:23:00.284Z,19.45
2022-09-10T05:25:28.954Z,23.15
2022-09-10T05:27:56.923Z,20.15
2022-09-10T05:30:24.889Z,15.40
2022-09-10T05:32:53.356Z,17.48
2022-09-10T05:35:21.364Z,15.35
2022-09-10T05:37:49.341Z,17.90
2022-09-10T05:40:20.681Z,18.33
2022-09-10T05:42:48.658Z,12.63
2022-09-10T05:45:18.712Z,16.02
2022-09-10T05:47:46.947Z,15.77
2022-09-10T05:50:17.911Z,13.70
2022-09-10T05:52:46.798Z,14.63
2022-09-10T05:55:18.049Z,13.40
2022-09-10T05:58:02.976Z,12.30
2022-09-10T06:00:31.019Z,13.48
2022-09-10T06:02:59.591Z,16.08
2022-09-10T06:05:30.845Z,10.02
2022-09-10T06:07:58.839Z,8.80
2022-09-10T06:10:29.934Z,8.75
2022-09-10T06:13:02.414Z,7.57
2022-09-10T06:15:33.141Z,10.18
2022-09-10T06:18:01.821Z,6.18
2022-09-10T06:20:32.859Z,6.00
2022-09-10T06:23:03.959Z,7.93
2022-09-10T06:25:34.921Z,6.70
2022-09-10T06:28:04.425Z,5.22
2022-09-10T06:30:35.598Z,5.05
2022-09-10T06:33:03.573Z,9.68
2022-09-10T06:35:32.204Z,7.70
2022-09-10T06:38:06.195Z,4.57
2022-09-10T06:40:38.118Z,4.90
2022-09-10T06:43:07.468Z,11.88
2022-09-10T06:45:40.665Z,6.25
2022-09-10T06:51:14.337Z,8.03
2022-09-10T06:53:47.051Z,5.18
2022-09-10T06:56:15.717Z,5.68
2022-09-10T06:58:45.586Z,5.85
2022-09-10T07:01:15.765Z,7.82
2022-09-10T07:03:47.487Z,4.82
2022-09-10T07:06:16.935Z,8.95
2022-09-10T07:08:45.187Z,5.60
2022-09-10T07:11:17.179Z,7.10
2022-09-10T07:14:02.093Z,6.72
2022-09-10T07:16:30.597Z,5.72
2022-09-10T07:18:59.794Z,7.20
2022-09-10T07:21:37.975Z,8.25
2022-09-10T07:24:06.851Z,8.77
2022-09-10T07:26:38.363Z,8.50
2022-09-10T07:29:08.141Z,9.02
2022-09-10T07:31:38.333Z,10.13
2022-09-10T07:34:06.656Z,8.30
2022-09-10T07:36:34.703Z,6.97
2022-09-10T07:39:08.437Z,8.75
2022-09-10T07:41:39.401Z,9.43
2022-09-10T07:44:12.064Z,14.07
2022-09-10T07:46:49.041Z,12.10
2022-09-10T07:49:20.772Z,10.90
2022-09-10T07:51:48.833Z,45.15
2022-09-10T07:54:17.337Z,18.05
2022-09-10T07:56:48.751Z,7.95
2022-09-10T07:59:21.869Z,9.07
2022-09-10T08:01:50.951Z,8.95
2022-09-10T08:04:22.124Z,10.50
2022-09-10T08:06:52.975Z,7.88
2022-09-10T08:09:24.237Z,14.38
2022-09-10T08:12:07.617Z,9.40
2022-09-10T08:14:38.081Z,9.10
2022-09-10T08:17:06.934Z,10.02
2022-09-10T08:19:36.691Z,12.48
2022-09-10T08:22:13.667Z,10.45
2022-09-10T08:24:41.894Z,12.23
2022-09-10T08:27:11.803Z,10.38
2022-09-10T08:29:44.323Z,10.77
2022-09-10T08:32:13.321Z,12.27
2022-09-10T08:34:41.609Z,15.20
2022-09-10T08:37:09.960Z,11.13
2022-09-10T08:39:47.678Z,11.65
2022-09-10T08:42:21.586Z,11.50
2022-09-10T08:44:55.546Z,11.55
2022-09-10T08:47:35.193Z,14.50
2022-09-10T08:50:09.204Z,16.40
2022-09-10T08:52:42.571Z,15.63
2022-09-10T08:55:35.577Z,13.38
2022-09-10T08:58:15.100Z,16.67
2022-09-10T09:00:45.639Z,18.50
2022-09-10T09:03:19.736Z,17.75
2022-09-10T09:05:50.836Z,17.88
2022-09-10T09:08:22.544Z,21.92
2022-09-10T09:11:04.158Z,17.65
2022-09-10T09:14:03.992Z,15.40
2022-09-10T09:17:00.363Z,15.55
2022-09-10T09:19:33.799Z,14.98
2022-09-10T09:22:17.282Z,13.30
2022-09-10T09:24:53.746Z,19.98
2022-09-10T09:27:27.319Z,15.93
2022-09-10T09:30:07.858Z,26.65
2022-09-10T09:32:44.791Z,19.17
2022-09-10T09:35:39.697Z,12.05
2022-09-10T09:40:52.578Z,16.73
2022-09-10T09:43:32.551Z,17.15
2022-09-10T09:46:01.843Z,15.63
2022-09-10T09:48:41.430Z,17.00
2022-09-10T09:51:11.936Z,19.17
2022-09-10T09:53:42.303Z,21.55
2022-09-10T09:56:19.603Z,15.95
2022-09-10T09:58:50.728Z,16.13
2022-09-10T10:01:23.998Z,14.27
2022-09-10T10:04:01.756Z,18.17
2022-09-10T10:06:32.641Z,18.27
2022-09-10T10:09:22.884Z,17.20
2022-09-10T10:11:53.798Z,16.42
2022-09-10T10:14:35.015Z,15.73
2022-09-10T10:17:06.523Z,19.00
2022-09-10T10:22:27.935Z,18.10
2022-09-10T10:25:02.263Z,20.73
2022-09-10T10:27:35.623Z,19.10
2022-09-10T10:30:23.613Z,13.70
2022-09-10T10:32:56.193Z,13.00
2022-09-10T10:35:46.223Z,10.73
2022-09-10T10:38:35.113Z,12.48
2022-09-10T10:41:36.949Z,10.43
2022-09-10T10:44:33.647Z,7.28
2022-09-10T10:47:34.167Z,7.10
2022-09-10T10:50:25.456Z,5.20
2022-09-10T10:53:19.589Z,6.32
2022-09-10T10:56:03.034Z,6.40
2022-09-10T10:59:06.994Z,8.20
2022-09-10T11:01:55.173Z,4.60
2022-09-10T11:04:32.211Z,5.22
2022-09-10T11:07:06.648Z,3.08
2022-09-10T11:09:41.584Z,5.13
2022-09-10T11:12:24.804Z,2.65
2022-09-10T11:15:15.234Z,2.38
2022-09-10T11:17:47.602Z,5.05
2022-09-10T11:23:30.660Z,4.93
2022-09-10T11:26:19.422Z,5.82
2022-09-10T11:28:58.834Z,6.65
2022-09-10T11:31:33.601Z,5.22
2022-09-10T11:34:08.131Z,4.93
2022-09-10T11:36:58.107Z,5.32
2022-09-10T11:39:36.020Z,5.40
2022-09-10T11:42:14.799Z,4.70
2022-09-10T11:45:00.505Z,3.88
2022-09-10T11:47:43.899Z,3.88
2022-09-10T11:50:38.794Z,2.30
2022-09-10T11:55:52.982Z,3.00
2022-09-10T11:58:31.335Z,4.05
2022-09-10T12:01:20.257Z,2.92
2022-09-10T12:04:22.377Z,2.50
2022-09-10T12:07:03.370Z,3.60
2022-09-10T12:09:52.492Z,5.03
2022-09-10T12:12:27.513Z,4.22
2022-09-10T12:14:57.210Z,3.35
2022-09-10T12:17:30.064Z,5.07
2022-09-10T12:20:01.472Z,3.20
2022-09-10T12:22:41.923Z,6.50
2022-09-10T12:25:39.857Z,14.55
2022-09-10T12:29:09.937Z,6.35
2022-09-10T12:32:14.584Z,2.90
2022-09-10T12:34:51.147Z,3.35
2022-09-10T12:40:49.455Z,4.78
2022-09-10T12:43:58.611Z,6.85
2022-09-10T12:46:31.347Z,6.22
2022-09-10T12:49:14.195Z,7.18
2022-09-10T12:52:06.680Z,2.92
2022-09-10T12:55:05.058Z,3.05
2022-09-10T12:57:42.967Z,1.65
2022-09-10T13:00:22.207Z,2.35
2022-09-10T13:03:07.736Z,1.20
2022-09-10T13:05:51.908Z,1.98
2022-09-10T13:08:26.999Z,1.75
2022-09-10T13:11:18.066Z,2.33
2022-09-10T13:13:52.633Z,1.35
2022-09-10T13:16:40.640Z,2.17
2022-09-10T13:19:55.400Z,2.28
2022-09-10T13:22:56.982Z,4.90
2022-09-10T13:25:36.659Z,2.83
2022-09-10T13:28:40.880Z,2.25
2022-09-10T13:31:24.299Z,2.63
2022-09-10T13:34:22.445Z,4.18
2022-09-10T13:37:10.163Z,5.05
2022-09-10T13:40:21.376Z,2.38
2022-09-10T13:43:21.413Z,4.22
2022-09-10T13:45:58.127Z,3.70
2022-09-10T13:48:35.482Z,6.20
2022-09-10T13:51:28.077Z,3.65
2022-09-10T13:53:58.845Z,3.33
2022-09-10T13:56:29.158Z,3.95
2022-09-10T13:59:03.880Z,3.58
2022-09-10T14:02:00.367Z,3.03
2022-09-10T14:04:36.608Z,5.05
2022-09-10T14:07:16.179Z,3.00
2022-09-10T14:09:53.966Z,4.03
2022-09-10T14:12:26.435Z,2.75
2022-09-10T14:15:05.424Z,3.15
2022-09-10T14:17:41.329Z,6.25
2022-09-10T14:20:31.854Z,3.08
2022-09-10T14:23:08.710Z,6.43
2022-09-10T14:25:42.427Z,3.45
2022-09-10T14:28:31.222Z,4.00
2022-09-10T14:34:26.790Z,3.20
2022-09-10T14:36:54.929Z,3.20
2022-09-10T14:39:24.691Z,3.33
2022-09-10T14:42:29.237Z,4.10
2022-09-10T14:45:00.436Z,3.03
2022-09-10T14:47:35.079Z,3.80
2022-09-10T14:50:38.866Z,3.30
2022-09-10T14:53:09.401Z,4.43
2022-09-10T14:55:41.577Z,3.97
2022-09-10T14:58:19.603Z,2.22
2022-09-10T15:00:47.677Z,2.30
2022-09-10T15:03:17.099Z,3.88
2022-09-10T15:05:46.134Z,8.90
2022-09-10T15:08:21.781Z,3.67
2022-09-10T15:10:50.805Z,6.05
2022-09-10T15:13:21.397Z,5.85
2022-09-10T15:15:58.215Z,4.15
2022-09-10T15:18:30.513Z,4.97
2022-09-10T15:21:01.522Z,7.28
2022-09-10T15:23:29.593Z,6.22
2022-09-10T15:26:00.521Z,6.97
2022-09-10T15:28:28.624Z,5.57
2022-09-10T15:30:56.733Z,9.77
2022-09-10T15:33:24.797Z,13.32
2022-09-10T15:35:54.174Z,7.53
2022-09-10T15:38:22.390Z,9.00
2022-09-10T15:41:09.077Z,7.63
2022-09-10T15:43:40.212Z,7.05
2022-09-10T15:46:20.215Z,10.35
2022-09-10T15:48:51.941Z,9.18
2022-09-10T15:51:25.447Z,4.10
2022-09-10T15:53:54.469Z,7.40
2022-09-10T15:56:26.998Z,9.25
2022-09-10T15:59:05.769Z,5.20
2022-09-10T16:01:38.326Z,7.53
2022-09-10T16:04:07.170Z,8.77
2022-09-10T16:06:43.602Z,7.22
2022-09-10T16:09:13.956Z,11.90
2022-09-10T16:11:43.546Z,9.48
2022-09-10T16:14:15.783Z,10.13
2022-09-10T16:16:53.845Z,10.85
2022-09-10T16:19:22.263Z,7.22
2022-09-10T16:21:52.991Z,6.82
2022-09-10T16:24:27.838Z,11.82
2022-09-10T16:26:55.777Z,8.57
2022-09-10T16:29:28.566Z,7.72
2022-09-10T16:31:57.235Z,7.25
2022-09-10T16:34:27.382Z,8.25
2022-09-10T16:37:10.613Z,14.77
2022-09-10T16:39:38.728Z,10.98
2022-09-10T16:42:19.283Z,10.27
2022-09-10T16:44:47.433Z,9.02
2022-09-10T16:47:18.870Z,7.85
2022-09-10T16:49:56.062Z,9.43
2022-09-10T16:52:29.171Z,13.75
2022-09-10T16:54:57.732Z,9.50
2022-09-10T16:57:28.741Z,11.25
2022-09-10T17:00:06.035Z,10.95
2022-09-10T17:02:40.899Z,16.15
2022-09-10T17:05:09.857Z,10.35
2022-09-10T17:07:57.688Z,7.93
2022-09-10T17:10:27.028Z,8.45
2022-09-10T17:12:54.990Z,11.65
2022-09-10T17:15:22.914Z,11.82
2022-09-10T17:18:00.448Z,17.17
2022-09-10T17:20:38.398Z,18.25
2022-09-10T17:23:08.476Z,17.65
2022-09-10T17:25:39.281Z,16.63
2022-09-10T17:28:07.386Z,22.02
2022-09-10T17:30:35.473Z,14.55
2022-09-10T17:33:09.539Z,12.43
2022-09-10T17:35:40.579Z,13.48
2022-09-10T17:38:14.251Z,12.52
2022-09-10T17:40:42.213Z,12.30
2022-09-10T17:43:17.227Z,16.83
2022-09-10T17:45:45.463Z,11.43
2022-09-10T17:48:16.527Z,27.10
2022-09-10T17:50:53.803Z,16.55
2022-09-10T17:53:24.079Z,14.93
2022-09-10T17:55:52.044Z,15.13
2022-09-10T17:58:23.610Z,21.02
2022-09-10T18:01:02.919Z,17.33
2022-09-10T18:03:31.557Z,19.35
2022-09-10T18:06:05.089Z,18.77
2022-09-10T18:08:44.231Z,18.60
2022-09-10T18:11:14.732Z,19.65
2022-09-10T18:13:43.910Z,17.27
2022-09-10T18:16:23.913Z,20.75
2022-09-10T18:18:53.873Z,22.00
2022-09-10T18:21:25.206Z,19.38
2022-09-10T18:24:06.530Z,21.23
2022-09-10T18:26:46.157Z,22.40
2022-09-10T18:29:15.937Z,21.65
2022-09-10T18:31:45.645Z,18.58
2022-09-10T18:34:19.560Z,22.00
2022-09-10T18:37:02.067Z,18.48
2022-09-10T18:39:34.677Z,20.45
2022-09-10T18:42:03.353Z,19.63
2022-09-10T18:44:41.194Z,19.50
2022-09-10T18:47:34.015Z,20.75
2022-09-10T18:50:15.545Z,25.65
2022-09-10T18:53:01.484Z,20.08
2022-09-10T18:55:31.570Z,20.25
2022-09-10T18:58:01.062Z,21.80
2022-09-10T19:00:31.851Z,18.77
2022-09-10T19:03:02.807Z,23.63
2022-09-10T19:05:34.122Z,25.17
2022-09-10T19:08:04.907Z,24.05
2022-09-10T19:10:37.219Z,22.27
2022-09-10T19:13:14.836Z,23.88
2022-09-10T19:15:43.145Z,26.00
2022-09-10T19:18:14.315Z,27.35
2022-09-10T19:20:50.403Z,20.70
2022-09-10T19:23:19.909Z,23.73
2022-09-10T19:25:53.636Z,21.48
2022-09-10T19:28:22.459Z,25.88
2022-09-10T19:30:53.294Z,22.38
2022-09-10T19:33:24.125Z,21.92
2022-09-10T19:35:56.052Z,25.42
2022-09-10T19:38:37.635Z,26.55
2022-09-10T19:41:09.664Z,25.73
2022-09-10T19:43:38.227Z,26.42
2022-09-10T19:46:10.097Z,21.17
2022-09-10T19:48:42.534Z,22.42
2022-09-10T19:51:13.472Z,23.17
2022-09-10T19:53:42.300Z,20.30
2022-09-10T19:56:22.759Z,22.00
2022-09-10T19:58:52.582Z,25.00
2022-09-10T20:01:21.947Z,23.35
2022-09-10T20:03:56.599Z,25.13
2022-09-10T20:06:29.293Z,24.38
2022-09-10T20:08:58.011Z,18.77
2022-09-10T20:11:29.917Z,27.85
2022-09-10T20:14:08.892Z,21.00
2022-09-10T20:16:44.682Z,20.83
2022-09-10T20:19:18.288Z,22.55
2022-09-10T20:21:49.457Z,21.02
2022-09-10T20:24:20.561Z,24.40
2022-09-10T20:26:49.867Z,24.08
2022-09-10T20:29:19.317Z,25.15
2022-09-10T20:31:53.677Z,22.45
2022-09-10T20:34:23.181Z,19.85
2022-09-10T20:36:52.365Z,21.15
2022-09-10T20:39:21.854Z,23.70
2022-09-10T20:41:51.227Z,29.00
2022-09-10T20:44:20.753Z,26.23
2022-09-10T20:46:57.479Z,29.02
2022-09-10T20:49:28.421Z,25.23
2022-09-10T20:51:59.527Z,27.10
2022-09-10T20:54:27.517Z,27.92
2022-09-10T20:57:07.553Z,30.67
2022-09-10T20:59:39.897Z,23.65
2022-09-10T21:02:08.147Z,25.52
2022-09-10T21:04:50.333Z,28.67
2022-09-10T21:07:18.318Z,26.35
2022-09-10T21:09:49.450Z,32.65
2022-09-10T21:12:19.164Z,32.25
2022-09-10T21:14:51.372Z,23.98
2022-09-10T21:17:19.763Z,21.25
2022-09-10T21:19:50.828Z,26.90
2022-09-10T21:22:31.160Z,24.67
2022-09-10T21:24:59.523Z,28.98
2022-09-10T21:27:32.150Z,23.77
2022-09-10T21:30:08.388Z,22.45
2022-09-10T21:32:46.434Z,30.33
2022-09-10T21:35:16.459Z,22.80
2022-09-10T21:37:44.824Z,26.70
2022-09-10T21:43:00.238Z,23.40
2022-09-10T21:45:28.870Z,34.83
2022-09-10T21:48:06.818Z,27.25
2022-09-10T21:50:34.839Z,26.67
2022-09-10T21:53:04.493Z,26.23
2022-09-10T21:55:36.337Z,25.15
2022-09-10T21:58:20.000Z,32.95
2022-09-10T22:00:51.142Z,24.67
2022-09-10T22:03:19.815Z,23.58
2022-09-10T22:06:06.107Z,28.55
2022-09-10T22:08:34.337Z,21.13
2022-09-10T22:11:06.489Z,26.17
2022-09-10T22:13:37.892Z,22.15
2022-09-10T22:16:06.778Z,24.38
2022-09-10T22:18:35.386Z,24.92
2022-09-10T22:21:06.751Z,29.80
2022-09-10T22:23:45.116Z,24.95
2022-09-10T22:26:19.278Z,23.65
2022-09-10T22:31:24.073Z,23.80
2022-09-10T22:33:56.174Z,28.30
2022-09-10T22:36:26.242Z,24.58
2022-09-10T22:38:56.302Z,27.40
2022-09-10T22:41:27.924Z,31.48
2022-09-10T22:43:57.508Z,29.95
2022-09-10T22:46:26.741Z,27.95
2022-09-10T22:49:07.822Z,31.63
2022-09-10T22:51:41.152Z,27.52
2022-09-10T22:54:10.592Z,30.43
2022-09-10T22:56:49.198Z,31.25
2022-09-10T22:59:21.768Z,31.02
2022-09-10T23:01:49.775Z,24.20
2022-09-10T23:04:20.810Z,25.63
2022-09-10T23:06:58.246Z,26.00
2022-09-10T23:09:26.237Z,26.48
2022-09-10T23:11:55.391Z,28.25
2022-09-10T23:14:30.572Z,25.00
2022-09-10T23:16:58.683Z,27.30
2022-09-10T23:19:30.831Z,31.25
2022-09-10T23:21:58.787Z,33.10
2022-09-10T23:24:39.148Z,25.35
2022-09-10T23:27:09.957Z,29.05
2022-09-10T23:29:42.459Z,25.27
2022-09-10T23:32:19.470Z,23.05
2022-09-10T23:34:47.746Z,27.00
2022-09-10T23:37:19.686Z,36.58
2022-09-10T23:40:01.700Z,28.05
2022-09-10T23:42:30.332Z,25.55
2022-09-10T23:44:59.698Z,29.15
2022-09-10T23:47:27.694Z,29.30
2022-09-10T23:50:08.172Z,29.75
2022-09-10T23:52:39.326Z,26.02
2022-09-10T23:55:10.664Z,25.50
2022-09-10T23:57:56.239Z,27.63
